createdAt,value
2023-05-09T00:00:49.588Z,53.23
2023-05-09T00:03:22.250Z,53.16
2023-05-09T00:05:54.844Z,53.37
2023-05-09T00:08:27.838Z,53.64
2023-05-09T00:11:01.271Z,53.15
2023-05-09T00:13:34.800Z,53.33
2023-05-09T00:16:08.382Z,53.25
2023-05-09T00:18:42.393Z,53.31
2023-05-09T00:21:14.784Z,53.29
2023-05-09T00:23:57.078Z,53.23
2023-05-09T00:26:29.759Z,53.10
2023-05-09T00:29:02.186Z,53.48
2023-05-09T00:31:34.783Z,53.19
2023-05-09T00:34:07.232Z,53.44
2023-05-09T00:36:51.916Z,53.28
2023-05-09T00:39:24.605Z,53.52
2023-05-09T00:41:57.475Z,53.14
2023-05-09T00:44:29.992Z,53.17
2023-05-09T00:47:14.714Z,52.81
2023-05-09T00:49:47.465Z,53.38
2023-05-09T00:52:44.767Z,53.47
2023-05-09T00:55:20.096Z,53.41
2023-05-09T00:57:52.725Z,53.52
2023-05-09T01:00:25.574Z,53.22
2023-05-09T01:02:58.508Z,53.47
2023-05-09T01:05:49.609Z,53.31
2023-05-09T01:08:48.909Z,53.20
2023-05-09T01:11:43.990Z,53.41
2023-05-09T01:15:08.647Z,53.48
2023-05-09T01:17:58.374Z,53.55
2023-05-09T01:20:38.146Z,52.90
2023-05-09T01:23:19.115Z,53.21
2023-05-09T01:26:03.202Z,53.13
2023-05-09T01:29:14.111Z,53.19
2023-05-09T01:31:49.120Z,53.24
2023-05-09T01:34:24.663Z,53.27
2023-05-09T01:37:00.841Z,53.42
2023-05-09T01:39:34.843Z,53.36
2023-05-09T01:42:11.227Z,53.51
2023-05-09T01:44:46.761Z,52.96
2023-05-09T01:47:20.142Z,53.54
2023-05-09T01:49:55.265Z,53.41
2023-05-09T01:52:29.907Z,53.50
2023-05-09T01:55:03.619Z,53.17
2023-05-09T01:57:37.695Z,53.27
2023-05-09T02:00:13.298Z,53.17
2023-05-09T02:02:46.298Z,53.17
2023-05-09T02:05:19.841Z,53.35
2023-05-09T02:07:54.629Z,53.30
2023-05-09T02:10:28.605Z,53.16
2023-05-09T02:13:01.351Z,53.06
2023-05-09T02:15:42.036Z,53.28
2023-05-09T02:18:14.830Z,53.36
2023-05-09T02:20:56.970Z,53.05
2023-05-09T02:23:30.432Z,53.13
2023-05-09T02:26:06.859Z,53.29
2023-05-09T02:28:52.177Z,53.23
2023-05-09T02:31:33.817Z,53.26
2023-05-09T02:34:20.244Z,53.11
2023-05-09T02:36:53.078Z,53.27
2023-05-09T02:39:26.115Z,53.27
2023-05-09T02:42:06.978Z,53.04
2023-05-09T02:44:39.708Z,53.46
2023-05-09T02:47:22.213Z,53.35
2023-05-09T02:49:54.859Z,53.02
2023-05-09T02:52:27.748Z,53.40
2023-05-09T02:55:00.648Z,53.00
2023-05-09T02:57:33.602Z,53.27
2023-05-09T03:00:10.025Z,53.16
2023-05-09T03:02:42.494Z,53.29
2023-05-09T03:05:17.818Z,53.38
2023-05-09T03:08:02.785Z,53.14
2023-05-09T03:10:35.229Z,53.26
2023-05-09T03:13:13.867Z,53.23
2023-05-09T03:15:46.771Z,53.35
2023-05-09T03:18:31.549Z,53.28
2023-05-09T03:21:04.166Z,53.37
2023-05-09T03:23:36.679Z,53.29
2023-05-09T03:26:09.496Z,53.13
2023-05-09T03:28:41.975Z,53.56
2023-05-09T03:31:17.568Z,53.29
2023-05-09T03:33:50.121Z,53.25
2023-05-09T03:36:23.238Z,53.45
2023-05-09T03:38:55.678Z,53.02
2023-05-09T03:41:28.316Z,53.22
2023-05-09T03:44:06.793Z,53.27
2023-05-09T03:46:39.354Z,53.29
2023-05-09T03:49:12.307Z,53.50
2023-05-09T03:51:44.960Z,52.93
2023-05-09T03:54:17.439Z,53.91
2023-05-09T03:56:49.916Z,53.45
2023-05-09T03:59:22.527Z,53.25
2023-05-09T04:01:55.068Z,53.36
2023-05-09T04:04:27.642Z,53.06
2023-05-09T04:07:00.266Z,53.39
2023-05-09T04:09:32.968Z,53.03
2023-05-09T04:12:05.882Z,53.61
2023-05-09T04:14:39.201Z,53.27
2023-05-09T04:17:11.791Z,53.63
2023-05-09T04:19:44.333Z,53.75
2023-05-09T04:22:16.892Z,53.93
2023-05-09T04:24:51.807Z,53.29
2023-05-09T04:27:24.238Z,53.29
2023-05-09T04:29:56.719Z,53.23
2023-05-09T04:32:31.903Z,53.30
2023-05-09T04:35:18.940Z,53.37
2023-05-09T04:37:53.090Z,53.26
2023-05-09T04:40:33.195Z,53.50
2023-05-09T04:43:06.105Z,53.56
2023-05-09T04:45:38.783Z,53.66
2023-05-09T04:48:37.365Z,53.00
2023-05-09T04:51:09.756Z,53.65
2023-05-09T04:53:42.350Z,53.28
2023-05-09T04:56:14.824Z,53.31
2023-05-09T04:58:47.692Z,53.51
2023-05-09T05:01:20.284Z,53.60
2023-05-09T05:03:53.016Z,53.28
2023-05-09T05:06:25.653Z,53.29
2023-05-09T05:09:00.551Z,53.79
2023-05-09T05:11:33.142Z,52.98
2023-05-09T05:14:05.697Z,53.33
2023-05-09T05:16:38.316Z,53.47
2023-05-09T05:19:10.927Z,53.60
2023-05-09T05:21:43.430Z,53.43
2023-05-09T05:24:15.827Z,53.26
2023-05-09T05:26:54.242Z,53.04
2023-05-09T05:29:26.855Z,53.43
2023-05-09T05:32:08.338Z,53.44
2023-05-09T05:34:40.954Z,53.19
2023-05-09T05:37:13.495Z,53.62
2023-05-09T05:39:46.050Z,52.99
2023-05-09T05:42:19.238Z,53.22
2023-05-09T05:45:04.289Z,52.94
2023-05-09T05:47:37.379Z,53.74
2023-05-09T05:50:13.311Z,53.72
2023-05-09T05:52:48.882Z,53.46
2023-05-09T05:55:21.399Z,52.95
2023-05-09T05:57:53.917Z,52.93
2023-05-09T06:00:26.613Z,53.88
2023-05-09T06:02:59.399Z,53.27
2023-05-09T06:05:31.965Z,53.32
2023-05-09T06:08:04.660Z,53.58
2023-05-09T06:10:37.062Z,53.36
2023-05-09T06:13:09.602Z,53.64
2023-05-09T06:15:59.797Z,53.02
2023-05-09T06:18:37.849Z,53.31
2023-05-09T06:21:10.384Z,52.88
2023-05-09T06:23:57.788Z,53.70
2023-05-09T06:26:37.479Z,53.42
2023-05-09T06:29:10.783Z,53.37
2023-05-09T06:31:43.304Z,53.42
2023-05-09T06:34:17.737Z,53.71
2023-05-09T06:36:50.304Z,53.29
2023-05-09T06:39:22.937Z,53.30
2023-05-09T06:42:17.664Z,53.45
2023-05-09T06:44:48.669Z,53.52
2023-05-09T06:47:21.235Z,53.18
2023-05-09T06:49:53.867Z,53.59
2023-05-09T06:52:26.777Z,53.40
2023-05-09T06:54:59.491Z,53.63
2023-05-09T06:57:32.359Z,53.57
2023-05-09T07:02:52.106Z,53.09
2023-05-09T07:05:24.584Z,53.58
2023-05-09T07:07:57.173Z,53.11
2023-05-09T07:10:29.665Z,53.36
2023-05-09T07:13:02.181Z,53.08
2023-05-09T07:15:42.063Z,53.30
2023-05-09T07:18:15.696Z,53.67
2023-05-09T07:20:48.384Z,53.40
2023-05-09T07:23:21.162Z,52.99
2023-05-09T07:25:58.497Z,53.24
2023-05-09T07:28:36.735Z,53.62
2023-05-09T07:31:12.517Z,53.37
2023-05-09T07:33:45.160Z,53.58
2023-05-09T07:36:17.835Z,53.36
2023-05-09T07:38:52.873Z,53.68
2023-05-09T07:41:27.065Z,53.43
2023-05-09T07:43:59.743Z,53.42
2023-05-09T07:46:42.216Z,53.50
2023-05-09T07:49:14.754Z,53.34
2023-05-09T07:51:47.449Z,53.30
2023-05-09T07:54:19.906Z,53.41
2023-05-09T07:56:58.244Z,53.54
2023-05-09T07:59:31.027Z,53.60
2023-05-09T08:02:15.292Z,53.50
2023-05-09T08:04:48.989Z,53.27
2023-05-09T08:07:21.659Z,53.54
2023-05-09T08:10:07.199Z,53.45
2023-05-09T08:12:39.867Z,53.54
2023-05-09T08:15:21.874Z,53.78
2023-05-09T08:17:57.262Z,53.53
2023-05-09T08:20:34.587Z,53.75
2023-05-09T08:23:17.602Z,53.82
2023-05-09T08:25:54.357Z,53.94
2023-05-09T08:28:32.304Z,53.70
2023-05-09T08:31:29.786Z,53.68
2023-05-09T08:34:02.259Z,53.53
2023-05-09T08:36:34.749Z,53.88
2023-05-09T08:39:07.393Z,53.75
2023-05-09T08:41:52.560Z,53.54
2023-05-09T08:44:26.320Z,53.81
2023-05-09T08:47:00.911Z,53.55
2023-05-09T08:49:35.134Z,53.55
2023-05-09T08:52:08.186Z,53.71
2023-05-09T08:54:40.832Z,54.02
2023-05-09T08:57:13.458Z,53.88
2023-05-09T08:59:49.761Z,53.55
2023-05-09T09:02:22.564Z,53.68
2023-05-09T09:04:58.199Z,53.82
2023-05-09T09:07:33.764Z,53.54
2023-05-09T09:10:08.604Z,54.05
2023-05-09T09:12:42.357Z,53.74
2023-05-09T09:15:18.346Z,53.79
2023-05-09T09:17:51.792Z,53.91
2023-05-09T09:20:27.688Z,53.98
2023-05-09T09:23:12.923Z,53.64
2023-05-09T09:25:48.784Z,54.05
2023-05-09T09:28:40.227Z,53.62
2023-05-09T09:31:27.464Z,53.87
2023-05-09T09:34:03.315Z,53.85
2023-05-09T09:36:38.607Z,54.12
2023-05-09T09:39:13.671Z,53.67
2023-05-09T09:41:46.190Z,53.96
2023-05-09T09:44:26.379Z,54.25
2023-05-09T09:46:58.956Z,54.20
2023-05-09T09:49:32.688Z,54.04
2023-05-09T09:52:05.234Z,54.08
2023-05-09T09:54:38.614Z,53.97
2023-05-09T09:57:11.290Z,53.89
2023-05-09T09:59:58.670Z,53.70
2023-05-09T10:02:31.292Z,53.71
2023-05-09T10:05:15.186Z,53.86
2023-05-09T10:07:54.873Z,54.21
2023-05-09T10:10:32.453Z,53.81
2023-05-09T10:13:18.688Z,53.74
2023-05-09T10:15:53.933Z,53.81
2023-05-09T10:18:33.982Z,53.79
2023-05-09T10:21:09.010Z,53.39
2023-05-09T10:23:44.658Z,54.09
2023-05-09T10:26:27.894Z,53.52
2023-05-09T10:29:06.077Z,53.72
2023-05-09T10:31:39.346Z,53.78
2023-05-09T10:34:13.353Z,54.10
2023-05-09T10:36:47.142Z,53.66
2023-05-09T10:39:20.037Z,53.91
2023-05-09T10:41:53.477Z,53.77
2023-05-09T10:44:26.705Z,53.62
2023-05-09T10:47:00.392Z,53.80
2023-05-09T10:49:34.342Z,53.71
2023-05-09T10:52:08.851Z,53.72
2023-05-09T10:54:41.991Z,53.77
2023-05-09T10:57:19.714Z,53.75
2023-05-09T10:59:52.441Z,54.25
2023-05-09T11:02:32.755Z,54.14
2023-05-09T11:05:20.176Z,54.19
2023-05-09T11:08:19.436Z,53.56
2023-05-09T11:10:56.933Z,53.95
2023-05-09T11:13:37.533Z,53.91
2023-05-09T11:16:11.684Z,54.05
2023-05-09T11:18:52.519Z,53.60
2023-05-09T11:21:26.270Z,54.13
2023-05-09T11:23:58.761Z,53.85
2023-05-09T11:26:31.538Z,53.81
2023-05-09T11:29:06.754Z,54.05
2023-05-09T11:32:06.391Z,54.09
2023-05-09T11:34:43.179Z,53.82
2023-05-09T11:37:19.608Z,53.83
2023-05-09T11:40:12.666Z,54.11
2023-05-09T11:42:48.209Z,53.75
2023-05-09T11:45:21.970Z,53.91
2023-05-09T11:47:54.867Z,54.11
2023-05-09T11:50:30.271Z,53.96
2023-05-09T11:53:02.698Z,54.00
2023-05-09T11:55:38.161Z,54.13
2023-05-09T11:58:11.056Z,54.00
2023-05-09T12:00:45.484Z,53.71
2023-05-09T12:03:19.044Z,54.00
2023-05-09T12:05:54.551Z,53.70
2023-05-09T12:08:28.555Z,53.37
2023-05-09T12:11:11.153Z,54.08
2023-05-09T12:13:52.371Z,53.79
2023-05-09T12:16:24.871Z,53.80
2023-05-09T12:18:57.492Z,54.10
2023-05-09T12:21:29.925Z,54.17
2023-05-09T12:24:02.395Z,54.33
2023-05-09T12:26:35.322Z,54.18
2023-05-09T12:29:08.008Z,53.91
2023-05-09T12:31:42.256Z,53.72
2023-05-09T12:34:15.439Z,54.58
2023-05-09T12:36:51.055Z,54.16
2023-05-09T12:39:24.602Z,54.50
2023-05-09T12:42:01.597Z,54.26
2023-05-09T12:44:35.042Z,54.37
2023-05-09T12:47:07.927Z,54.15
2023-05-09T12:49:40.539Z,54.43
2023-05-09T12:52:19.556Z,54.08
2023-05-09T12:54:53.035Z,54.40
2023-05-09T12:57:29.557Z,53.89
2023-05-09T13:00:09.610Z,54.18
2023-05-09T13:02:42.625Z,54.38
2023-05-09T13:05:21.131Z,54.46
2023-05-09T13:07:56.949Z,53.98
2023-05-09T13:10:29.846Z,54.07
2023-05-09T13:13:04.489Z,54.40
2023-05-09T13:15:37.743Z,54.32
2023-05-09T13:18:11.570Z,54.25
2023-05-09T13:20:44.187Z,54.24
2023-05-09T13:23:17.114Z,53.95
2023-05-09T13:25:49.606Z,54.13
2023-05-09T13:28:22.052Z,54.27
2023-05-09T13:30:54.685Z,53.92
2023-05-09T13:33:27.682Z,54.38
2023-05-09T13:36:00.440Z,54.13
2023-05-09T13:38:42.090Z,54.26
2023-05-09T13:41:20.069Z,54.00
2023-05-09T13:43:52.766Z,54.33
2023-05-09T13:46:25.237Z,54.11
2023-05-09T13:48:57.707Z,53.80
2023-05-09T13:51:33.978Z,54.02
2023-05-09T13:54:10.421Z,54.32
2023-05-09T13:56:51.230Z,54.31
2023-05-09T13:59:23.659Z,54.09
2023-05-09T14:01:58.919Z,54.34
2023-05-09T14:04:34.499Z,54.07
2023-05-09T14:07:07.255Z,54.39
2023-05-09T14:09:40.268Z,54.06
2023-05-09T14:12:15.311Z,54.04
2023-05-09T14:14:47.937Z,54.36
2023-05-09T14:17:20.661Z,54.14
2023-05-09T14:19:53.204Z,54.75
2023-05-09T14:22:25.852Z,54.33
2023-05-09T14:24:58.662Z,54.53
2023-05-09T14:27:32.154Z,54.58
2023-05-09T14:30:05.095Z,54.48
2023-05-09T14:32:37.715Z,54.55
2023-05-09T14:35:10.395Z,53.83
2023-05-09T14:37:42.896Z,54.21
2023-05-09T14:40:16.324Z,54.20
2023-05-09T14:42:49.244Z,54.43
2023-05-09T14:45:22.064Z,54.26
2023-05-09T14:47:55.274Z,54.14
2023-05-09T14:50:28.037Z,54.16
2023-05-09T14:53:01.111Z,54.50
2023-05-09T14:55:33.626Z,54.17
2023-05-09T14:58:06.092Z,54.54
2023-05-09T15:00:38.628Z,54.39
2023-05-09T15:03:11.620Z,54.53
2023-05-09T15:05:44.999Z,54.17
2023-05-09T15:08:17.484Z,54.11
2023-05-09T15:10:50.860Z,54.39
2023-05-09T15:13:23.743Z,54.78
2023-05-09T15:15:57.171Z,54.49
2023-05-09T15:18:30.078Z,54.62
2023-05-09T15:21:02.615Z,54.72
2023-05-09T15:23:41.031Z,54.80
2023-05-09T15:26:13.506Z,54.88
2023-05-09T15:28:45.988Z,54.69
2023-05-09T15:31:21.887Z,54.54
2023-05-09T15:33:54.564Z,54.35
2023-05-09T15:36:29.563Z,54.26
2023-05-09T15:39:02.335Z,54.52
2023-05-09T15:41:34.972Z,54.58
2023-05-09T15:44:07.603Z,54.64
2023-05-09T15:46:40.890Z,54.63
2023-05-09T15:49:13.649Z,54.33
2023-05-09T15:51:46.287Z,54.41
2023-05-09T15:54:19.678Z,54.79
2023-05-09T15:56:52.643Z,54.79
2023-05-09T15:59:25.708Z,54.72
2023-05-09T16:01:58.302Z,54.90
2023-05-09T16:04:30.956Z,54.55
2023-05-09T16:07:03.843Z,54.94
2023-05-09T16:09:37.384Z,54.84
2023-05-09T16:12:09.992Z,54.60
2023-05-09T16:14:42.716Z,54.72
2023-05-09T16:17:15.206Z,54.55
2023-05-09T16:19:47.802Z,54.72
2023-05-09T16:22:20.517Z,54.59
2023-05-09T16:24:53.087Z,54.46
2023-05-09T16:27:25.877Z,55.14
2023-05-09T16:29:58.486Z,54.63
2023-05-09T16:32:31.222Z,54.66
2023-05-09T16:35:04.143Z,54.67
2023-05-09T16:37:37.482Z,54.51
2023-05-09T16:40:10.746Z,54.91
2023-05-09T16:42:43.402Z,54.66
2023-05-09T16:45:15.934Z,54.64
2023-05-09T16:47:48.686Z,55.15
2023-05-09T16:50:21.601Z,55.02
2023-05-09T16:52:55.202Z,54.95
2023-05-09T16:55:27.811Z,54.55
2023-05-09T16:58:00.322Z,54.61
2023-05-09T17:00:33.018Z,55.08
2023-05-09T17:03:05.697Z,54.98
2023-05-09T17:05:38.183Z,54.91
2023-05-09T17:08:10.758Z,54.91
2023-05-09T17:10:43.214Z,54.85
2023-05-09T17:13:15.817Z,54.31
2023-05-09T17:15:48.924Z,54.69
2023-05-09T17:18:33.264Z,54.80
2023-05-09T17:21:10.298Z,55.42
2023-05-09T17:23:43.423Z,54.53
2023-05-09T17:26:16.174Z,54.88
2023-05-09T17:28:49.657Z,54.87
2023-05-09T17:31:22.871Z,54.53
2023-05-09T17:33:55.415Z,54.54
2023-05-09T17:36:27.834Z,54.85
2023-05-09T17:39:00.756Z,54.67
2023-05-09T17:41:33.555Z,55.05
2023-05-09T17:44:06.325Z,54.47
2023-05-09T17:46:39.480Z,54.59
2023-05-09T17:49:13.970Z,55.13
2023-05-09T17:51:46.965Z,55.18
2023-05-09T17:54:19.559Z,54.67
2023-05-09T17:56:55.902Z,54.62
2023-05-09T17:59:28.862Z,54.94
2023-05-09T18:02:01.512Z,54.40
2023-05-09T18:04:34.972Z,54.59
2023-05-09T18:07:08.613Z,54.59
2023-05-09T18:09:41.077Z,54.63
2023-05-09T18:12:13.558Z,55.28
2023-05-09T18:14:46.211Z,54.94
2023-05-09T18:17:18.746Z,54.96
2023-05-09T18:19:51.222Z,55.15
2023-05-09T18:22:24.134Z,54.83
2023-05-09T18:24:56.775Z,54.97
2023-05-09T18:27:29.754Z,54.71
2023-05-09T18:30:02.430Z,55.36
2023-05-09T18:32:34.949Z,54.64
2023-05-09T18:35:08.661Z,54.87
2023-05-09T18:37:41.763Z,55.09
2023-05-09T18:40:16.033Z,54.82
2023-05-09T18:42:48.791Z,54.84
2023-05-09T18:45:21.833Z,54.88
2023-05-09T18:47:54.461Z,54.71
2023-05-09T18:50:28.640Z,55.36
2023-05-09T18:53:02.017Z,55.00
2023-05-09T18:55:34.821Z,54.98
2023-05-09T18:58:07.319Z,54.63
2023-05-09T19:00:40.696Z,55.33
2023-05-09T19:03:13.217Z,54.53
2023-05-09T19:05:46.733Z,55.17
2023-05-09T19:08:19.200Z,55.29
2023-05-09T19:10:52.309Z,55.03
2023-05-09T19:13:24.910Z,55.16
2023-05-09T19:15:57.434Z,54.74
2023-05-09T19:18:30.148Z,55.38
2023-05-09T19:21:03.331Z,54.72
2023-05-09T19:23:35.986Z,54.78
2023-05-09T19:26:09.762Z,54.81
2023-05-09T19:28:43.141Z,55.01
2023-05-09T19:31:15.884Z,55.02
2023-05-09T19:33:49.549Z,54.87
2023-05-09T19:36:22.046Z,54.75
2023-05-09T19:38:54.600Z,54.83
2023-05-09T19:41:27.132Z,55.10
2023-05-09T19:43:59.577Z,55.11
2023-05-09T19:46:32.188Z,54.78
2023-05-09T19:49:04.802Z,54.63
2023-05-09T19:51:37.530Z,54.46
2023-05-09T19:54:09.999Z,54.42
2023-05-09T19:56:42.429Z,55.40
2023-05-09T19:59:14.899Z,54.60
2023-05-09T20:01:47.596Z,54.78
2023-05-09T20:04:22.233Z,54.76
2023-05-09T20:06:54.694Z,54.78
2023-05-09T20:09:30.466Z,55.28
2023-05-09T20:12:03.763Z,55.39
2023-05-09T20:14:36.892Z,55.06
2023-05-09T20:17:09.449Z,55.32
2023-05-09T20:19:41.938Z,55.33
2023-05-09T20:22:14.630Z,55.48
2023-05-09T20:24:47.293Z,55.26
2023-05-09T20:27:22.287Z,55.31
2023-05-09T20:29:54.725Z,55.00
2023-05-09T20:32:28.047Z,55.07
2023-05-09T20:35:00.550Z,54.84
2023-05-09T20:37:34.509Z,55.36
2023-05-09T20:40:08.403Z,55.19
2023-05-09T20:42:41.117Z,54.84
2023-05-09T20:45:13.859Z,54.80
2023-05-09T20:47:47.241Z,55.09
2023-05-09T20:50:19.716Z,54.94
2023-05-09T20:52:52.827Z,55.19
2023-05-09T20:55:25.749Z,54.64
2023-05-09T20:57:58.525Z,55.21
2023-05-09T21:00:31.285Z,55.21
2023-05-09T21:03:03.914Z,55.40
2023-05-09T21:05:36.434Z,54.96
2023-05-09T21:08:08.891Z,55.45
2023-05-09T21:10:41.530Z,54.82
2023-05-09T21:13:14.417Z,55.19
2023-05-09T21:15:50.996Z,55.34
2023-05-09T21:18:23.682Z,54.52
2023-05-09T21:20:56.268Z,54.74
2023-05-09T21:23:29.413Z,55.38
2023-05-09T21:26:02.734Z,54.54
2023-05-09T21:28:35.471Z,55.07
2023-05-09T21:31:10.443Z,54.94
2023-05-09T21:33:44.388Z,54.82
2023-05-09T21:36:16.838Z,54.60
2023-05-09T21:38:49.510Z,55.07
2023-05-09T21:41:21.946Z,55.40
2023-05-09T21:43:54.441Z,55.24
2023-05-09T21:46:27.204Z,55.49
2023-05-09T21:49:01.155Z,55.62
2023-05-09T21:51:34.117Z,55.34
2023-05-09T21:54:06.873Z,55.36
2023-05-09T21:56:39.847Z,55.42
2023-05-09T21:59:12.742Z,54.59
2023-05-09T22:01:45.993Z,55.05
2023-05-09T22:04:18.508Z,55.28
2023-05-09T22:06:51.322Z,55.38
2023-05-09T22:09:23.805Z,55.51
2023-05-09T22:11:56.276Z,55.50
2023-05-09T22:14:28.690Z,55.05
2023-05-09T22:17:01.078Z,55.17
2023-05-09T22:19:33.980Z,55.24
2023-05-09T22:22:06.977Z,55.36
2023-05-09T22:24:43.049Z,55.54
2023-05-09T22:27:15.926Z,55.01
2023-05-09T22:29:48.347Z,54.96
2023-05-09T22:32:21.135Z,54.71
2023-05-09T22:34:54.178Z,55.54
2023-05-09T22:37:26.782Z,55.47
2023-05-09T22:40:01.394Z,55.24
2023-05-09T22:42:34.729Z,55.07
2023-05-09T22:45:08.086Z,55.70
2023-05-09T22:47:40.511Z,54.88
2023-05-09T22:50:13.349Z,55.13
2023-05-09T22:52:45.901Z,55.23
2023-05-09T22:55:18.583Z,55.25
2023-05-09T22:57:50.991Z,55.12
2023-05-09T23:00:23.418Z,55.46
2023-05-09T23:02:56.222Z,55.45
2023-05-09T23:05:29.198Z,55.07
2023-05-09T23:08:01.617Z,55.35
2023-05-09T23:10:34.450Z,54.79
2023-05-09T23:13:07.929Z,55.00
2023-05-09T23:15:40.993Z,55.23
2023-05-09T23:18:13.545Z,55.55
2023-05-09T23:20:46.078Z,55.53
2023-05-09T23:23:18.487Z,55.45
2023-05-09T23:25:51.552Z,55.58
2023-05-09T23:28:25.269Z,55.47
2023-05-09T23:30:57.900Z,55.60
2023-05-09T23:33:30.523Z,55.26
2023-05-09T23:36:04.138Z,55.24
2023-05-09T23:38:37.067Z,55.28
2023-05-09T23:41:09.617Z,55.02
2023-05-09T23:43:42.437Z,54.64
2023-05-09T23:46:14.928Z,55.60
2023-05-09T23:48:47.403Z,55.25
2023-05-09T23:51:21.522Z,55.30
2023-05-09T23:53:53.990Z,55.10
2023-05-09T23:56:26.667Z,55.45
2023-05-09T23:59:00.420Z,54.98
